Omaha — WDC9423 — position and weather

sailwx.info

Track history (hours):
 
Tides and Currents Weather Stations Pressure Air Temp Water Temp Dewpoint Dewpoint Depression Visibility Wind Speed Wind Dir Waves Ship Positions

Omaha

Owner: Turn services, Inc, New Orleans, LA. More information available from US FCC via Universal Licensing System and Coast Guard Vessel Documentation Center.

Last reported at 2014-Nov-27 01:16 UTC. Time now 2014-Nov-27 02:50 UTC.
Position N 29°55' W 089°56'.

Length 13 m; draft 3.5 m.

Type: Pilot. MMSI: 367102030.

Date/timePositionNaut miles runAvg speedWind from/ knotsBaromVisibWave heightAir tempDewpointWater temp
2014-Nov-27 01:16N 29°55' W 089°56'0 0.0
2014-Nov-26 22:14N 29°55' W 089°56'0 0.1
2014-Nov-26 17:15N 29°55' W 089°56'0 0.1
2014-Nov-26 10:30N 29°55' W 089°56'0 0.0
2014-Nov-26 09:32N 29°55' W 089°56'3 0.2
2014-Nov-25 15:28N 29°56' W 089°59'1 0.4
2014-Nov-25 13:27N 29°56' W 089°60'4 4.1
2014-Nov-25 12:32N 29°55' W 089°56'4 0.8
2014-Nov-25 07:30N 29°57' W 090°00'0 0.1
2014-Nov-25 06:29N 29°57' W 090°00'3 1.2
2014-Nov-25 04:26N 29°55' W 089°58'1 0.9
2014-Nov-25 03:19N 29°55' W 089°56'1 0.8
2014-Nov-25 02:30N 29°55' W 089°56'0 0.0
2014-Nov-23 21:33N 29°55' W 089°56'0 0.0
2014-Nov-23 20:21N 29°55' W 089°56'1 0.6
2014-Nov-23 19:21N 29°55' W 089°57'0 0.0
2014-Nov-23 18:03N 29°55' W 089°57'1 0.8
2014-Nov-23 17:12N 29°55' W 089°56'0 0.6
2014-Nov-23 16:29N 29°55' W 089°56'1 0.2
2014-Nov-23 09:29N 29°55' W 089°58'0 0.3
2014-Nov-23 08:26N 29°55' W 089°58'2 2.3
2014-Nov-23 07:34N 29°56' W 090°00'3 0.5
2014-Nov-23 01:22N 29°55' W 089°57'1 0.1
2014-Nov-22 11:32N 29°55' W 089°56'1 0.0
2014-Nov-20 19:06N 29°55' W 089°56'2 0.4
2014-Nov-20 13:30N 29°56' W 089°59'3 1.2
2014-Nov-20 11:17N 29°55' W 089°56'0 0.1
2014-Nov-20 08:30N 29°55' W 089°56'1 0.6
2014-Nov-20 07:10N 29°55' W 089°57'3 1.9
2014-Nov-20 05:33N 29°57' W 090°00'0 0.1
2014-Nov-20 04:31N 29°57' W 090°00'2 1.9
2014-Nov-20 03:31N 29°56' W 089°58'1 0.3
2014-Nov-20 01:26N 29°56' W 089°59'1 1.6
2014-Nov-20 00:32N 29°55' W 089°57'1 0.1
2014-Nov-19 11:06N 29°55' W 089°56'0 0.0
2014-Nov-19 10:08N 29°55' W 089°56'2 0.2
2014-Nov-18 22:32N 29°55' W 089°58'1 0.7
2014-Nov-18 21:31N 29°56' W 089°59'1 0.0
2014-Nov-17 13:26N 29°57' W 090°00'  
Track history (hours):
 
Tides and Currents Weather Stations Pressure Air Temp Water Temp Dewpoint Dewpoint Depression Visibility Wind Speed Wind Dir Waves Ship Positions

Omaha

Owner: Turn services, Inc, New Orleans, LA. More information available from US FCC via Universal Licensing System and Coast Guard Vessel Documentation Center.

Last reported at 2014-Nov-27 01:16 UTC. Time now 2014-Nov-27 02:50 UTC.
Position N 29°55' W 089°56'.

Length 13 m; draft 3.5 m.

Type: Pilot. MMSI: 367102030.

Date/timePositionNaut miles runAvg speedWind from/ knotsBaromVisibWave heightAir tempDewpointWater temp
2014-Nov-27 01:16N 29°55' W 089°56'0 0.0
2014-Nov-26 22:14N 29°55' W 089°56'0 0.1
2014-Nov-26 17:15N 29°55' W 089°56'0 0.1
2014-Nov-26 10:30N 29°55' W 089°56'0 0.0
2014-Nov-26 09:32N 29°55' W 089°56'3 0.2
2014-Nov-25 15:28N 29°56' W 089°59'1 0.4
2014-Nov-25 13:27N 29°56' W 089°60'4 4.1
2014-Nov-25 12:32N 29°55' W 089°56'4 0.8
2014-Nov-25 07:30N 29°57' W 090°00'0 0.1
2014-Nov-25 06:29N 29°57' W 090°00'3 1.2
2014-Nov-25 04:26N 29°55' W 089°58'1 0.9
2014-Nov-25 03:19N 29°55' W 089°56'1 0.8
2014-Nov-25 02:30N 29°55' W 089°56'0 0.0
2014-Nov-23 21:33N 29°55' W 089°56'0 0.0
2014-Nov-23 20:21N 29°55' W 089°56'1 0.6
2014-Nov-23 19:21N 29°55' W 089°57'0 0.0
2014-Nov-23 18:03N 29°55' W 089°57'1 0.8
2014-Nov-23 17:12N 29°55' W 089°56'0 0.6
2014-Nov-23 16:29N 29°55' W 089°56'1 0.2
2014-Nov-23 09:29N 29°55' W 089°58'0 0.3
2014-Nov-23 08:26N 29°55' W 089°58'2 2.3
2014-Nov-23 07:34N 29°56' W 090°00'3 0.5
2014-Nov-23 01:22N 29°55' W 089°57'1 0.1
2014-Nov-22 11:32N 29°55' W 089°56'1 0.0
2014-Nov-20 19:06N 29°55' W 089°56'2 0.4
2014-Nov-20 13:30N 29°56' W 089°59'3 1.2
2014-Nov-20 11:17N 29°55' W 089°56'0 0.1
2014-Nov-20 08:30N 29°55' W 089°56'1 0.6
2014-Nov-20 07:10N 29°55' W 089°57'3 1.9
2014-Nov-20 05:33N 29°57' W 090°00'0 0.1
2014-Nov-20 04:31N 29°57' W 090°00'2 1.9
2014-Nov-20 03:31N 29°56' W 089°58'1 0.3
2014-Nov-20 01:26N 29°56' W 089°59'1 1.6
2014-Nov-20 00:32N 29°55' W 089°57'1 0.1
2014-Nov-19 11:06N 29°55' W 089°56'0 0.0
2014-Nov-19 10:08N 29°55' W 089°56'2 0.2
2014-Nov-18 22:32N 29°55' W 089°58'1 0.7
2014-Nov-18 21:31N 29°56' W 089°59'1 0.0
2014-Nov-17 13:26N 29°57' W 090°00'  

Dump ship's entire track history